TimeCST,TemperatureF,Dew PointF,Humidity,Sea Level PressureIn,VisibilityMPH,Wind Direction,Wind SpeedMPH,Gust SpeedMPH,PrecipitationIn,Events,Conditions,WindDirDegrees,DateUTC
12:13 AM,-25.6,-32.8,69,30.54,10.0,Calm,Calm,-,N/A,,Clear,0,2013-01-24 06:13:00
12:33 AM,-25.6,-32.8,69,30.53,10.0,Calm,Calm,-,N/A,,Clear,0,2013-01-24 06:33:00
12:53 AM,-27.4,-34.6,69,30.52,10.0,Calm,Calm,-,N/A,,Clear,0,2013-01-24 06:53:00
1:13 AM,-25.6,-34.6,63,30.53,10.0,Calm,Calm,-,N/A,,Clear,0,2013-01-24 07:13:00
1:34 AM,-25.6,-32.8,69,30.54,10.0,Calm,Calm,-,N/A,,Clear,0,2013-01-24 07:34:00
1:53 AM,-27.4,-34.6,69,30.54,10.0,Calm,Calm,-,N/A,,Clear,0,2013-01-24 07:53:00
2:13 AM,-27.4,-34.6,69,30.53,10.0,Calm,Calm,-,N/A,,Clear,0,2013-01-24 08:13:00
2:33 AM,-29.2,-38.2,62,30.53,10.0,Calm,Calm,-,N/A,,Clear,0,2013-01-24 08:33:00
2:53 AM,-29.2,-36.4,68,30.53,10.0,Calm,Calm,-,N/A,,Clear,0,2013-01-24 08:53:00
3:13 AM,-31.0,-38.2,68,30.53,10.0,Calm,Calm,-,N/A,,Clear,0,2013-01-24 09:13:00
3:33 AM,-29.2,-36.4,68,30.54,10.0,Calm,Calm,-,N/A,,Clear,0,2013-01-24 09:33:00
3:53 AM,-29.2,-36.4,68,30.54,10.0,Calm,Calm,-,N/A,,Clear,0,2013-01-24 09:53:00
4:13 AM,-32.8,-40.0,68,30.53,10.0,Calm,Calm,-,N/A,,Clear,0,2013-01-24 10:13:00
4:33 AM,-34.6,-41.8,68,30.53,10.0,Calm,Calm,-,N/A,,Clear,0,2013-01-24 10:33:00
4:53 AM,-31.0,-38.2,68,30.52,10.0,Calm,Calm,-,N/A,,Clear,0,2013-01-24 10:53:00
5:13 AM,-32.8,-41.8,62,30.53,10.0,Calm,Calm,-,N/A,,Clear,0,2013-01-24 11:13:00
5:33 AM,-34.6,-41.8,68,30.53,10.0,Calm,Calm,-,N/A,,Clear,0,2013-01-24 11:33:00
5:53 AM,-32.8,-41.8,62,30.53,10.0,Calm,Calm,-,N/A,,Clear,0,2013-01-24 11:53:00
6:14 AM,-34.6,-43.6,61,30.53,10.0,Calm,Calm,-,N/A,,Clear,0,2013-01-24 12:14:00
6:33 AM,-32.8,-41.8,62,30.54,10.0,Calm,Calm,-,N/A,,Clear,0,2013-01-24 12:33:00
6:53 AM,-32.8,-41.8,62,30.55,10.0,Calm,Calm,-,N/A,,Clear,0,2013-01-24 12:53:00
7:13 AM,-32.8,-41.8,62,30.55,10.0,Calm,Calm,-,N/A,,Clear,0,2013-01-24 13:13:00
7:33 AM,-34.6,-41.8,68,30.54,10.0,Calm,Calm,-,N/A,,Clear,0,2013-01-24 13:33:00
7:53 AM,-32.8,-40.0,68,30.52,10.0,Calm,Calm,-,N/A,,Clear,0,2013-01-24 13:53:00
8:13 AM,-32.8,-41.8,62,30.51,10.0,Calm,Calm,-,N/A,,Clear,0,2013-01-24 14:13:00
8:33 AM,-29.2,-38.2,62,30.51,5.0,Calm,Calm,-,N/A,,Haze,0,2013-01-24 14:33:00
8:53 AM,-25.6,-32.8,69,30.51,10.0,Calm,Calm,-,N/A,,Clear,0,2013-01-24 14:53:00
9:13 AM,-23.8,-29.2,76,30.51,10.0,Calm,Calm,-,N/A,,Clear,0,2013-01-24 15:13:00
9:33 AM,-20.2,-27.4,69,30.51,10.0,Calm,Calm,-,N/A,,Clear,0,2013-01-24 15:33:00
9:53 AM,-18.4,-25.6,70,30.50,10.0,Calm,Calm,-,N/A,,Clear,0,2013-01-24 15:53:00
10:13 AM,-16.6,-25.6,64,30.49,10.0,SE,3.5,-,N/A,,Clear,130,2013-01-24 16:13:00
10:33 AM,-16.6,-23.8,70,30.49,10.0,Calm,Calm,-,N/A,,Clear,0,2013-01-24 16:33:00
10:53 AM,-14.8,-23.8,64,30.49,10.0,South,3.5,-,N/A,,Clear,180,2013-01-24 16:53:00
11:13 AM,-13.0,-22.0,64,30.48,10.0,SSE,3.5,-,N/A,,Clear,150,2013-01-24 17:13:00
11:33 AM,-11.2,-22.0,59,30.47,10.0,SSE,3.5,-,N/A,,Clear,160,2013-01-24 17:33:00
11:53 AM,-11.2,-23.8,54,30.47,10.0,South,4.6,-,N/A,,Clear,170,2013-01-24 17:53:00
12:14 PM,-9.4,-23.8,49,30.45,10.0,SSE,3.5,-,N/A,,Clear,150,2013-01-24 18:14:00
12:33 PM,-9.4,-23.8,49,30.43,10.0,ESE,3.5,-,N/A,,Clear,120,2013-01-24 18:33:00
12:53 PM,-9.4,-22.0,54,30.42,10.0,SE,5.8,-,N/A,,Clear,140,2013-01-24 18:53:00
1:13 PM,-9.4,-20.2,59,30.40,10.0,SE,5.8,-,N/A,,Clear,140,2013-01-24 19:13:00
1:33 PM,-7.6,-20.2,54,30.40,10.0,SSE,6.9,-,N/A,,Clear,150,2013-01-24 19:33:00
1:53 PM,-7.6,-20.2,54,30.40,10.0,SE,5.8,-,N/A,,Scattered Clouds,140,2013-01-24 19:53:00
2:13 PM,-7.6,-20.2,54,30.38,10.0,SSE,6.9,-,N/A,,Scattered Clouds,150,2013-01-24 20:13:00
2:33 PM,-5.8,-20.2,50,30.36,10.0,SE,5.8,-,N/A,,Scattered Clouds,140,2013-01-24 20:33:00
2:53 PM,-5.8,-20.2,50,30.35,10.0,SSE,8.1,-,N/A,,Mostly Cloudy,150,2013-01-24 20:53:00
3:13 PM,-5.8,-18.4,55,30.33,10.0,SE,8.1,-,N/A,,Scattered Clouds,140,2013-01-24 21:13:00
3:33 PM,-5.8,-20.2,50,30.32,10.0,SSE,8.1,-,N/A,,Scattered Clouds,150,2013-01-24 21:33:00
3:53 PM,-5.8,-18.4,55,30.30,10.0,SE,5.8,-,N/A,,Mostly Cloudy,140,2013-01-24 21:53:00
4:13 PM,-5.8,-18.4,55,30.29,10.0,SE,5.8,-,N/A,,Mostly Cloudy,140,2013-01-24 22:13:00
4:33 PM,-5.8,-16.6,60,30.28,10.0,SE,6.9,-,N/A,,Overcast,140,2013-01-24 22:33:00
4:53 PM,-5.8,-16.6,60,30.27,10.0,SE,5.8,-,N/A,,Overcast,140,2013-01-24 22:53:00
5:13 PM,-4.0,-16.6,55,30.26,10.0,SE,5.8,-,N/A,,Overcast,140,2013-01-24 23:13:00
5:33 PM,-4.0,-14.8,60,30.25,7.0,ESE,4.6,-,N/A,,Mostly Cloudy,120,2013-01-24 23:33:00
5:53 PM,-4.0,-11.2,71,30.25,3.0,SE,4.6,-,N/A,Snow,Light Snow,130,2013-01-24 23:53:00
6:13 PM,-4.0,-9.4,78,30.24,2.5,SE,4.6,-,N/A,Snow,Light Snow,130,2013-01-25 00:13:00
6:33 PM,-4.0,-9.4,78,30.22,2.5,SE,4.6,-,N/A,Snow,Light Snow,130,2013-01-25 00:33:00
6:53 PM,-2.2,-9.4,71,30.21,2.0,SE,5.8,-,N/A,Snow,Light Snow,140,2013-01-25 00:53:00
7:13 PM,-2.2,-7.6,78,30.18,2.0,SE,8.1,-,N/A,Snow,Light Snow,130,2013-01-25 01:13:00
7:33 PM,-2.2,-7.6,78,30.16,4.0,SE,8.1,-,N/A,Snow,Light Snow,140,2013-01-25 01:33:00
7:53 PM,-2.2,-7.6,78,30.16,2.5,SE,9.2,-,N/A,Snow,Light Snow,140,2013-01-25 01:53:00
8:13 PM,-2.2,-7.6,78,30.14,2.5,SE,8.1,-,N/A,Snow,Light Snow,140,2013-01-25 02:13:00
8:33 PM,-0.4,-7.6,72,30.13,2.0,SSE,8.1,-,N/A,Snow,Light Snow,150,2013-01-25 02:33:00
8:53 PM,-0.4,-5.8,78,30.13,2.5,SSE,9.2,16.1,N/A,Snow,Light Snow,150,2013-01-25 02:53:00
9:13 PM,-0.4,-5.8,78,30.11,5.0,SE,9.2,16.1,N/A,Snow,Light Snow,140,2013-01-25 03:13:00
9:33 PM,-0.4,-5.8,78,30.09,3.0,SE,8.1,-,N/A,Snow,Light Snow,140,2013-01-25 03:33:00
9:53 PM,-0.4,-5.8,78,30.07,3.0,SE,10.4,-,N/A,Snow,Light Snow,140,2013-01-25 03:53:00
10:13 PM,1.4,-5.8,72,30.06,4.0,SE,11.5,-,N/A,Snow,Light Snow,140,2013-01-25 04:13:00
10:33 PM,1.4,-5.8,72,30.06,7.0,SSE,9.2,-,N/A,Snow,Light Snow,160,2013-01-25 04:33:00
10:53 PM,1.4,-4.0,78,30.05,3.0,SSE,10.4,-,N/A,Snow,Light Snow,160,2013-01-25 04:53:00
11:13 PM,1.4,-4.0,78,30.04,10.0,SSE,6.9,-,N/A,,Mostly Cloudy,160,2013-01-25 05:13:00
11:33 PM,1.4,-4.0,78,30.04,10.0,South,9.2,-,N/A,,Overcast,170,2013-01-25 05:33:00
11:53 PM,1.4,-4.0,78,30.03,10.0,South,8.1,-,N/A,,Overcast,170,2013-01-25 05:53:00